Time;durP1;ratioP1;P1;durP2;ratioP2;P2;SDS_P1;SDS_P2;PMS_P1;PMS_P2;Temp;Humidity;BMP_temperature;BMP_pressure;BME280_temperature;BME280_humidity;BME280_pressure;Samples;Min_cycle;Max_cycle;Signal;HPM_P1;HPM_P2
2024/03/13 00:00:34;;;;;;;12.63;11.27;;;8.60;99.90;;;-141.84;78.23;19917.50;5014270;28;20212;-54
2024/03/13 00:03:03;;;;;;;13.27;10.90;;;8.60;99.90;;;-141.84;78.42;20104.47;5014278;28;20203;-51
2024/03/13 00:05:33;;;;;;;13.57;10.63;;;8.70;99.90;;;-141.84;78.77;20362.63;5014528;28;20203;-50
2024/03/13 00:08:04;;;;;;;12.83;11.07;;;8.60;99.90;;;-141.84;78.64;20450.03;5025700;28;20222;-53
2024/03/13 00:10:32;;;;;;;13.70;11.10;;;8.60;99.90;;;-141.84;77.62;19549.63;5026188;28;20257;-52
2024/03/13 00:13:01;;;;;;;13.27;10.77;;;8.70;99.90;;;-141.84;77.16;19370.81;5017666;28;20627;-49
2024/03/13 00:15:29;;;;;;;13.53;10.87;;;8.70;99.90;;;-141.84;77.73;19606.53;5019221;28;20199;-52
2024/03/13 00:18:01;;;;;;;12.70;10.83;;;8.70;99.90;;;-141.84;78.03;19756.94;5019806;28;20195;-49
2024/03/13 00:20:30;;;;;;;12.03;10.33;;;8.70;99.90;;;-141.84;78.34;20039.44;5025934;28;20202;-52
2024/03/13 00:22:58;;;;;;;15.33;10.70;;;8.70;99.90;;;-141.84;78.46;20019.13;5022228;28;20269;-52
2024/03/13 00:25:28;;;;;;;13.27;11.13;;;8.70;99.90;;;-141.84;78.48;20134.97;5021103;28;20264;-53
2024/03/13 00:28:00;;;;;;;14.20;11.97;;;8.70;99.90;;;-141.84;77.83;19665.47;5014382;28;20309;-54
2024/03/13 00:30:30;;;;;;;13.60;11.23;;;8.70;99.90;;;-141.84;76.44;19137.13;5017226;28;20207;-55
2024/03/13 00:33:01;;;;;;;13.93;11.57;;;8.70;99.90;;;-141.84;75.98;19007.06;5023172;28;20323;-53
2024/03/13 00:35:29;;;;;;;14.53;10.67;;;8.70;99.90;;;-141.84;77.41;19352.53;5014571;28;20206;-50
2024/03/13 00:38:00;;;;;;;13.63;11.60;;;8.70;99.90;;;-141.84;77.65;19509.00;5017452;28;20230;-57
2024/03/13 00:40:31;;;;;;;16.17;11.53;;;8.70;99.90;;;-141.84;77.97;19771.16;5018550;28;20281;-51
2024/03/13 00:43:01;;;;;;;12.57;10.63;;;8.60;99.90;;;-141.84;76.40;19043.66;5024799;28;20217;-61
2024/03/13 00:45:31;;;;;;;12.23;10.87;;;8.60;99.90;;;-141.84;75.58;18820.16;5018504;28;20205;-61
2024/03/13 00:48:01;;;;;;;13.83;10.73;;;8.60;99.90;;;-141.84;77.60;19466.31;5020804;28;20249;-61
2024/03/13 00:50:30;;;;;;;13.63;11.20;;;8.60;99.90;;;-141.84;77.85;19557.78;5017793;28;20206;-61
2024/03/13 00:52:59;;;;;;;12.53;10.83;;;8.50;99.90;;;-141.84;79.40;21070.03;5015088;28;20228;-60
2024/03/13 00:55:27;;;;;;;14.47;11.07;;;8.40;99.90;;;-141.84;80.87;24210.28;5017711;28;20207;-60
2024/03/13 00:57:55;;;;;;;14.07;11.37;;;8.30;99.90;;;-141.84;82.28;28583.16;5015031;28;20252;-61
2024/03/13 01:00:28;;;;;;;14.10;12.10;;;8.20;99.90;;;-141.84;83.15;35535.25;5016402;28;20201;-60
2024/03/13 01:02:57;;;;;;;16.13;12.13;;;8.10;99.90;;;-141.84;83.10;34857.84;5020243;28;20229;-61
2024/03/13 01:05:27;;;;;;;17.20;11.97;;;8.10;99.90;;;-141.84;83.82;39828.88;5017376;28;20203;-61
2024/03/13 01:07:56;;;;;;;14.20;10.70;;;8.00;99.90;;;-141.84;84.94;45751.28;5016647;28;20388;-61
2024/03/13 01:10:26;;;;;;;16.00;11.87;;;7.90;99.90;;;-141.84;85.82;51778.88;5004090;28;20299;-61
2024/03/13 01:12:55;;;;;;;14.43;11.93;;;7.90;99.90;;;-141.84;85.96;53615.19;5021134;28;20226;-60
2024/03/13 01:15:24;;;;;;;16.80;12.00;;;7.90;99.90;;;-141.84;84.07;41563.59;5014967;28;20276;-61
2024/03/13 01:17:53;;;;;;;12.13;10.50;;;7.90;99.90;;;-141.84;83.92;39616.44;5025086;28;20840;-61
2024/03/13 01:20:21;;;;;;;13.77;11.10;;;7.90;99.90;;;-141.84;85.10;47322.81;5019777;28;20206;-60
2024/03/13 01:22:51;;;;;;;14.10;10.73;;;7.90;99.90;;;-141.84;85.77;52303.44;5013282;28;20199;-62
2024/03/13 01:25:24;;;;;;;17.10;12.03;;;7.90;99.90;;;-141.84;86.82;56765.13;5023012;28;20229;-61
2024/03/13 01:27:53;;;;;;;14.20;12.17;;;7.80;99.90;;;-141.84;86.98;59129.22;4988255;28;20706;-60
2024/03/13 01:30:23;;;;;;;14.30;10.97;;;7.80;99.90;;;-141.84;86.95;59391.97;5016906;28;20282;-60
2024/03/13 01:32:52;;;;;;;15.80;12.70;;;7.80;99.90;;;-141.84;86.29;55452.34;5017650;28;20195;-61
2024/03/13 01:35:22;;;;;;;14.33;12.00;;;7.80;99.90;;;-141.84;86.10;54140.00;5019940;28;20236;-61
2024/03/13 01:37:58;;;;;;;14.77;11.90;;;7.90;99.90;;;-141.84;86.29;54927.34;5022671;28;20198;-60
2024/03/13 01:54:50;;;;;;;16.87;12.13;;;7.90;99.90;;;-141.84;85.50;50729.94;5018585;28;20201;-61
2024/03/13 01:55:10;;;;;;;14.77;11.13;;;8.00;99.90;;;-141.84;83.49;36486.28;4992006;28;20203;-52
2024/03/13 01:58:19;;;;;;;14.03;11.60;;;8.00;99.90;;;-141.84;84.47;42871.75;5015200;28;20198;-52
2024/03/13 02:03:37;;;;;;;16.07;12.07;;;7.90;99.90;;;-141.84;84.31;43395.16;5016137;28;20195;-52
2024/03/13 02:06:10;;;;;;;15.60;11.50;;;7.90;99.90;;;-141.84;83.61;38188.88;5021715;28;20325;-53
2024/03/13 02:08:43;;;;;;;15.77;12.00;;;7.90;99.90;;;-141.84;84.54;42610.09;5017821;28;20246;-54
2024/03/13 02:11:12;;;;;;;15.30;12.57;;;7.90;99.90;;;-141.84;85.77;51778.88;5014418;28;20230;-50
2024/03/13 02:13:43;;;;;;;15.27;11.60;;;7.80;99.90;;;-141.84;86.56;55977.41;5014717;28;20199;-52
2024/03/13 02:16:11;;;;;;;16.37;12.67;;;7.80;99.90;;;-141.84;86.46;56765.13;5021603;28;20241;-52
2024/03/13 02:18:40;;;;;;;14.20;11.87;;;7.70;99.90;;;-141.84;85.09;47846.78;5017325;28;20207;-52
2024/03/13 02:21:09;;;;;;;15.43;11.97;;;7.70;99.90;;;-141.84;86.20;53877.56;5015622;28;20206;-48
2024/03/13 02:23:39;;;;;;;18.17;12.30;;;7.60;99.90;;;-141.84;88.19;63072.50;5017519;28;20214;-54
2024/03/13 02:26:07;;;;;;;16.73;11.70;;;7.50;99.90;;;-141.84;87.55;62283.53;5009763;28;20301;-52
2024/03/13 02:28:36;;;;;;;15.40;12.10;;;7.50;99.90;;;-141.84;88.65;64650.94;5003944;28;20226;-52
2024/03/13 02:31:07;;;;;;;16.90;12.47;;;7.40;99.90;;;-141.84;89.98;70970.84;4956071;28;20214;-51
2024/03/13 02:33:36;;;;;;;17.53;12.63;;;7.30;99.90;;;-141.84;91.28;76245.09;4998325;28;20211;-52
2024/03/13 02:36:05;;;;;;;15.43;11.70;;;7.20;99.90;;;-141.84;92.09;78620.75;4951190;28;20331;-54
2024/03/13 02:38:35;;;;;;;18.27;12.77;;;7.10;99.90;;;-141.84;93.71;84169.50;5004652;28;20230;-52
2024/03/13 02:41:04;;;;;;;18.80;12.27;;;7.00;99.90;;;-141.84;95.06;87872.91;5007540;28;20213;-53
2024/03/13 02:43:36;;;;;;;16.17;11.73;;;6.90;99.90;;;-141.84;96.47;92109.53;5004256;28;20225;-60
2024/03/13 02:46:08;;;;;;;17.63;12.60;;;6.80;99.90;;;-141.84;98.04;96085.44;5000732;28;20202;-61
2024/03/13 02:48:37;;;;;;;16.30;11.67;;;6.80;99.90;;;-141.84;98.91;98207.50;4988833;28;20234;-61
2024/03/13 02:51:08;;;;;;;16.70;11.60;;;6.70;99.90;;;-141.84;99.91;100065.22;4994107;28;20305;-61
2024/03/13 02:53:38;;;;;;;18.13;13.20;;;6.70;99.90;;;-141.84;99.86;100596.16;4990470;28;20297;-61
2024/03/13 02:56:09;;;;;;;14.83;11.37;;;6.70;99.90;;;-141.84;99.56;99799.78;5010575;28;20426;-62
2024/03/13 02:58:39;;;;;;;15.77;12.20;;;6.60;99.90;;;-141.84;100.00;101658.25;4986882;28;20288;-60
2024/03/13 03:01:08;;;;;;;15.23;11.67;;;6.50;99.90;;;-141.84;100.00;102986.25;4990836;28;20250;-60
2024/03/13 03:03:37;;;;;;;17.43;12.37;;;6.50;99.90;;;-141.84;100.00;105111.94;4982734;28;20710;-61
2024/03/13 03:06:06;;;;;;;15.90;12.23;;;6.50;99.90;;;-141.84;100.00;107238.72;4993835;28;20234;-60
2024/03/13 03:08:37;;;;;;;19.73;12.80;;;6.40;99.90;;;-141.84;100.00;107770.63;5002213;28;20235;-61
2024/03/13 03:11:05;;;;;;;16.63;12.00;;;6.40;99.90;;;-141.84;100.00;108834.56;4992018;28;20242;-61
2024/03/13 03:13:34;;;;;;;17.83;12.53;;;6.30;99.90;;;-141.84;100.00;109632.72;4986376;28;20214;-63
2024/03/13 03:16:03;;;;;;;16.53;12.50;;;6.30;99.90;;;-141.84;100.00;109632.72;4990410;28;20241;-61
2024/03/13 03:18:31;;;;;;;17.60;12.27;;;6.30;99.90;;;-141.84;100.00;107770.63;4989633;28;20191;-61
2024/03/13 03:21:00;;;;;;;17.63;13.03;;;6.40;99.90;;;-141.84;100.00;107770.63;5001833;28;20887;-61
2024/03/13 03:23:29;;;;;;;18.13;13.13;;;6.40;99.90;;;-141.84;100.00;107238.72;4995139;28;20333;-61
2024/03/13 03:25:57;;;;;;;19.63;13.17;;;6.50;99.90;;;-141.84;100.00;106175.19;5000718;28;20254;-62
2024/03/13 03:28:26;;;;;;;17.53;12.93;;;6.50;99.90;;;-141.84;100.00;104048.94;4993756;28;20231;-60
2024/03/13 03:30:56;;;;;;;17.67;12.37;;;6.60;99.90;;;-141.84;100.00;102189.38;5002207;28;20206;-61
2024/03/13 03:33:25;;;;;;;17.67;12.23;;;6.70;99.90;;;-141.84;98.87;99003.56;4995252;28;20207;-61
2024/03/13 03:35:55;;;;;;;15.63;11.90;;;6.90;99.90;;;-141.84;98.70;98472.84;4987037;28;20202;-61
2024/03/13 03:38:25;;;;;;;15.93;12.13;;;6.80;99.90;;;-141.84;98.56;98207.50;5006363;28;20932;-61
2024/03/13 03:40:54;;;;;;;16.33;12.50;;;6.90;99.90;;;-141.84;96.83;95289.94;4987419;28;20252;-61
2024/03/13 03:43:22;;;;;;;19.10;13.57;;;7.00;99.90;;;-141.84;93.20;84962.78;4992737;28;20289;-61
2024/03/13 03:45:51;;;;;;;19.60;13.60;;;7.20;99.90;;;-141.84;89.99;71761.53;4984951;28;20198;-61
2024/03/13 03:48:21;;;;;;;17.00;12.17;;;7.20;99.90;;;-141.84;89.21;68863.09;5006959;28;20253;-61
2024/03/13 03:50:53;;;;;;;20.60;13.33;;;7.30;99.90;;;-141.84;89.02;67809.63;4999350;28;20403;-52
2024/03/13 03:53:21;;;;;;;17.33;12.57;;;7.30;99.90;;;-141.84;88.16;64914.06;4986681;28;20843;-60
2024/03/13 03:55:49;;;;;;;17.83;12.63;;;7.40;99.90;;;-141.84;87.55;61231.81;4985031;28;20307;-61
2024/03/13 03:58:19;;;;;;;19.33;12.37;;;7.40;99.90;;;-141.84;86.91;57290.34;5008954;28;20233;-61
2024/03/13 04:00:49;;;;;;;18.60;12.63;;;7.50;99.90;;;-141.84;86.66;57290.34;4996263;28;20194;-61
2024/03/13 04:03:18;;;;;;;18.60;12.37;;;7.50;99.90;;;-141.84;85.01;47846.78;5015726;28;20253;-61
2024/03/13 04:05:49;;;;;;;15.70;12.37;;;7.50;99.90;;;-141.84;85.45;47846.78;4991001;28;20203;-61
2024/03/13 04:08:17;;;;;;;15.83;12.33;;;7.60;99.90;;;-141.84;86.18;52565.75;4996405;28;20214;-61
2024/03/13 04:10:45;;;;;;;17.87;12.50;;;7.50;99.90;;;-141.84;86.71;55714.84;4996822;28;20227;-61
2024/03/13 04:13:19;;;;;;;16.07;11.60;;;7.50;99.90;;;-141.84;87.10;57815.66;5000005;28;20628;-60
2024/03/13 04:15:50;;;;;;;14.77;11.47;;;7.50;99.90;;;-141.84;86.18;52565.75;4992819;28;20699;-61
2024/03/13 04:18:21;;;;;;;18.43;12.67;;;7.50;99.90;;;-141.84;84.14;40057.69;5002438;28;20191;-60
2024/03/13 04:20:50;;;;;;;16.33;12.13;;;7.50;99.90;;;-141.84;82.99;30518.72;4990653;28;20207;-60
2024/03/13 04:23:21;;;;;;;22.10;14.53;;;7.50;99.90;;;-141.84;84.58;40349.81;5007434;28;20229;-52
2024/03/13 04:25:52;;;;;;;15.80;11.93;;;7.40;99.90;;;-141.84;85.72;50205.56;4994108;28;20285;-49
2024/03/13 04:28:20;;;;;;;14.50;11.47;;;7.30;99.90;;;-141.84;84.31;42086.81;4981351;28;20229;-61
2024/03/13 04:30:49;;;;;;;16.57;12.13;;;7.40;99.90;;;-141.84;86.44;52041.16;4986568;28;20260;-60
2024/03/13 04:33:19;;;;;;;16.57;11.30;;;7.30;99.90;;;-141.84;88.38;64387.81;4985094;28;20210;-60
2024/03/13 04:35:51;;;;;;;16.30;11.67;;;7.20;99.90;;;-141.84;87.80;60706.06;4990566;28;20206;-60
2024/03/13 04:38:19;;;;;;;17.03;11.80;;;7.20;99.90;;;-141.84;88.49;64124.72;4995841;28;20233;-61
2024/03/13 04:40:48;;;;;;;16.23;11.73;;;7.10;99.90;;;-141.84;89.87;70180.31;5008146;28;20362;-53
2024/03/13 04:43:18;;;;;;;14.53;11.50;;;7.00;99.90;;;-141.84;89.04;68599.69;4999680;28;20265;-49
2024/03/13 04:45:47;;;;;;;17.23;12.03;;;6.90;99.90;;;-141.84;89.85;70970.84;5001071;28;20195;-52
2024/03/13 04:48:15;;;;;;;16.13;12.17;;;6.90;99.90;;;-141.84;90.05;71234.38;4984336;28;20261;-53
2024/03/13 04:50:44;;;;;;;15.87;11.63;;;6.90;99.90;;;-141.84;94.10;84433.91;4993150;28;20272;-49
2024/03/13 04:53:12;;;;;;;18.33;12.20;;;6.70;99.90;;;-141.84;95.03;87872.91;4989249;28;20290;-53
2024/03/13 04:55:42;;;;;;;18.23;12.17;;;6.70;99.90;;;-141.84;95.69;90520.28;5000838;28;20285;-50
2024/03/13 04:58:10;;;;;;;15.23;11.53;;;6.60;99.90;;;-141.84;97.37;93964.47;4993016;28;20814;-51
2024/03/13 05:00:41;;;;;;;18.57;12.33;;;6.50;99.90;;;-141.84;99.82;99799.78;5002482;28;20194;-50
2024/03/13 05:03:10;;;;;;;17.13;11.80;;;6.40;99.90;;;-141.84;99.08;99534.38;5002199;28;20208;-49
2024/03/13 05:05:45;;;;;;;19.80;13.27;;;6.40;99.90;;;-141.84;99.57;99799.78;4998942;28;20230;-50
2024/03/13 05:08:16;;;;;;;18.43;12.33;;;6.40;99.90;;;-141.84;99.41;99534.38;5003930;28;20317;-52
2024/03/13 05:10:45;;;;;;;16.97;12.23;;;6.40;99.90;;;-141.84;96.47;92904.41;4967976;28;20229;-53
2024/03/13 05:13:15;;;;;;;18.17;12.77;;;6.40;99.90;;;-141.84;98.45;96350.63;4982688;28;20297;-51
2024/03/13 05:15:45;;;;;;;16.83;11.70;;;6.40;99.90;;;-141.84;100.00;102720.59;4997770;28;20598;-53
2024/03/13 05:18:14;;;;;;;15.00;12.40;;;6.30;99.90;;;-141.84;100.00;106441.06;4989569;28;20234;-54
2024/03/13 05:20:43;;;;;;;16.87;12.37;;;6.30;99.90;;;-141.84;100.00;109100.59;4994102;28;20952;-54
2024/03/13 05:23:11;;;;;;;17.23;12.37;;;6.20;99.90;;;-141.84;100.00;110697.16;4993504;28;20205;-50
2024/03/13 05:25:40;;;;;;;18.50;12.90;;;6.10;99.90;;;-141.84;100.00;112028.13;4982631;28;20275;-54
2024/03/13 05:28:09;;;;;;;18.33;13.50;;;6.10;99.90;;;-141.84;100.00;109100.59;4992128;28;20261;-50
2024/03/13 05:30:38;;;;;;;20.50;13.43;;;6.10;99.90;;;-141.84;100.00;107770.63;5002258;28;20232;-53
2024/03/13 05:33:07;;;;;;;20.53;12.73;;;6.20;99.90;;;-141.84;96.65;94759.69;5003191;28;20218;-52
2024/03/13 05:35:40;;;;;;;18.63;13.27;;;6.30;99.90;;;-141.84;96.21;89990.66;4986601;28;20203;-50
2024/03/13 05:38:09;;;;;;;18.43;12.77;;;6.40;99.90;;;-141.84;95.86;90520.28;5012459;28;20205;-54
2024/03/13 05:40:39;;;;;;;21.10;13.97;;;6.30;99.90;;;-141.84;96.98;93169.38;4983839;28;20289;-54
2024/03/13 05:43:10;;;;;;;17.67;13.00;;;6.40;99.90;;;-141.84;98.48;96881.06;5000938;28;20213;-53
2024/03/13 05:45:39;;;;;;;20.17;14.40;;;6.30;99.90;;;-141.84;96.87;95289.94;4990880;28;20232;-54
2024/03/13 05:48:09;;;;;;;20.70;13.20;;;6.40;99.90;;;-141.84;95.55;90255.47;5004598;28;20206;-53
2024/03/13 05:50:38;;;;;;;18.80;13.80;;;6.40;99.90;;;-141.84;97.35;94229.53;4961628;28;20228;-51
2024/03/13 05:53:08;;;;;;;20.30;14.33;;;6.40;99.90;;;-141.84;99.00;97942.19;5001479;28;20293;-55
2024/03/13 05:55:37;;;;;;;18.33;13.20;;;6.30;99.90;;;-141.84;95.89;91844.63;5003193;28;21263;-52
2024/03/13 05:58:12;;;;;;;19.13;13.73;;;6.30;99.90;;;-141.84;97.26;93434.41;4996641;28;20231;-52
2024/03/13 06:00:43;;;;;;;17.93;13.17;;;6.40;99.90;;;-141.84;96.83;93699.44;4990090;28;20195;-53
2024/03/13 06:03:13;;;;;;;18.33;13.90;;;6.40;99.90;;;-141.84;96.93;92904.41;4994913;28;20317;-54
2024/03/13 06:05:42;;;;;;;19.33;13.37;;;6.40;99.90;;;-141.84;96.41;92374.47;4996128;28;20222;-54
2024/03/13 06:08:13;;;;;;;18.97;13.60;;;6.50;99.90;;;-141.84;96.13;91049.97;4996656;28;20241;-60
2024/03/13 06:10:41;;;;;;;19.00;13.83;;;6.40;99.90;;;-141.84;97.84;96085.44;5005531;28;20281;-61
2024/03/13 06:13:13;;;;;;;19.53;13.83;;;6.40;99.90;;;-141.84;96.67;94229.53;4998119;28;20202;-62
2024/03/13 06:15:41;;;;;;;20.67;14.70;;;6.50;99.90;;;-141.84;95.51;90255.47;5004036;28;20255;-61
2024/03/13 06:18:10;;;;;;;20.70;14.43;;;6.50;99.90;;;-141.84;97.21;94229.53;4991582;28;20679;-61
2024/03/13 06:20:39;;;;;;;19.40;14.17;;;6.60;99.90;;;-141.84;96.45;93964.47;5006826;28;20323;-62
2024/03/13 06:23:07;;;;;;;18.23;13.23;;;6.60;99.90;;;-141.84;93.06;84698.34;5003701;28;20275;-62
2024/03/13 06:25:41;;;;;;;20.33;14.27;;;6.70;99.90;;;-141.84;91.54;76772.88;4988570;28;20233;-61
2024/03/13 06:30:52;;;;;;;18.23;13.80;;;6.80;99.90;;;-141.84;93.38;83376.34;4996097;28;20210;-61
2024/03/13 06:33:20;;;;;;;19.30;14.20;;;6.80;99.90;;;-141.84;95.33;89725.88;4992109;28;20230;-61
2024/03/13 06:35:51;;;;;;;20.60;14.13;;;6.90;99.90;;;-141.84;90.38;74134.56;4997518;28;20215;-61
2024/03/13 06:38:19;;;;;;;21.43;14.10;;;7.00;99.90;;;-141.84;87.94;64650.94;4999899;28;20210;-61
2024/03/13 06:40:48;;;;;;;21.13;14.27;;;7.00;99.90;;;-141.84;84.98;44965.75;4985715;28;20294;-61
2024/03/13 06:43:16;;;;;;;21.30;14.27;;;7.10;99.90;;;-141.84;84.95;45489.41;4998148;28;20202;-61
2024/03/13 06:45:47;;;;;;;23.20;14.80;;;7.20;99.90;;;-141.84;83.91;34568.16;5000670;28;20869;-61
2024/03/13 06:48:16;;;;;;;18.67;13.80;;;7.30;99.90;;;-141.84;86.26;50992.13;5005336;28;20221;-61
2024/03/13 06:50:46;;;;;;;22.43;15.17;;;7.40;99.90;;;-141.84;83.45;37274.19;4986370;28;20223;-62
2024/03/13 06:53:14;;;;;;;20.87;14.40;;;7.40;99.90;;;-141.84;79.63;20384.97;5007709;28;20206;-61
2024/03/13 06:55:45;;;;;;;22.17;14.77;;;7.50;99.90;;;-141.84;78.64;19714.25;4990300;28;20202;-60
2024/03/13 06:58:13;;;;;;;21.67;14.80;;;7.60;99.90;;;-141.84;78.29;19395.19;4989305;28;20647;-61
2024/03/13 07:00:42;;;;;;;19.07;13.93;;;7.70;99.90;;;-141.84;74.69;18501.16;4993813;28;20764;-61
2024/03/13 07:03:10;;;;;;;21.97;14.33;;;7.90;99.90;;;-141.84;75.68;18641.34;4997947;28;20202;-62
2024/03/13 07:05:41;;;;;;;24.20;14.73;;;8.00;99.90;;;-141.84;73.80;18495.06;4985564;28;20205;-61
2024/03/13 07:08:09;;;;;;;24.33;15.13;;;8.10;99.90;;;-141.84;74.94;18596.66;4993573;28;20205;-60
2024/03/13 07:10:40;;;;;;;21.73;14.27;;;8.20;99.90;;;-141.84;73.93;18497.09;5000040;28;20370;-61
2024/03/13 07:13:08;;;;;;;22.87;15.13;;;8.20;99.90;;;-141.84;73.43;18513.34;4999501;28;20640;-60
2024/03/13 07:15:38;;;;;;;23.83;15.50;;;8.20;99.90;;;-141.84;73.89;18545.84;4985815;28;20663;-61
2024/03/13 07:18:07;;;;;;;24.57;15.73;;;8.30;99.90;;;-141.84;73.96;18533.66;4997970;28;20206;-61
2024/03/13 07:20:35;;;;;;;21.30;14.43;;;8.30;99.90;;;-141.84;72.61;18452.41;4988603;28;20203;-61
2024/03/13 07:23:04;;;;;;;23.63;14.50;;;8.40;99.90;;;-141.84;71.94;18478.81;4987658;28;20225;-61
2024/03/13 07:25:32;;;;;;;20.93;14.63;;;8.40;99.90;;;-141.84;70.58;18442.25;4989953;28;21125;-61
2024/03/13 07:28:01;;;;;;;23.83;16.00;;;8.50;99.90;;;-141.84;70.36;18470.69;4997873;28;20206;-60
2024/03/13 07:30:30;;;;;;;25.63;15.13;;;8.60;99.90;;;-141.84;68.75;18480.84;5006869;28;20233;-62
2024/03/13 07:32:58;;;;;;;24.57;16.07;;;8.70;99.90;;;-141.84;68.27;18501.16;4981949;28;20920;-62
2024/03/13 07:35:26;;;;;;;21.90;15.53;;;8.80;99.90;;;-141.84;68.31;18488.97;5000620;28;20654;-62
2024/03/13 07:37:58;;;;;;;21.07;14.33;;;8.80;99.90;;;-141.84;68.34;18523.50;5006550;28;20203;-61
2024/03/13 07:40:28;;;;;;;24.23;15.23;;;8.90;99.90;;;-141.84;67.17;18440.22;4974750;28;20290;-64
2024/03/13 07:42:56;;;;;;;22.67;15.57;;;8.90;99.90;;;-141.84;66.42;18488.97;4982278;28;20293;-61
2024/03/13 07:45:26;;;;;;;24.00;15.60;;;9.00;99.90;;;-141.84;65.88;18497.09;4990314;28;20205;-62
2024/03/13 07:47:54;;;;;;;20.30;14.97;;;9.20;99.90;;;-141.84;66.30;18533.66;4987742;28;20694;-61
2024/03/13 07:50:23;;;;;;;24.40;16.47;;;9.20;99.90;;;-141.84;66.25;18505.22;4994392;28;20240;-61
2024/03/13 07:52:52;;;;;;;23.93;15.37;;;9.30;99.90;;;-141.84;64.75;18507.25;4985042;28;20686;-61
2024/03/13 07:55:21;;;;;;;24.27;16.50;;;9.40;99.90;;;-141.84;64.90;18525.53;4991572;28;20230;-61
2024/03/13 07:57:52;;;;;;;24.40;16.57;;;9.50;99.90;;;-141.84;63.92;18578.38;5002314;28;20294;-60
2024/03/13 08:00:22;;;;;;;23.13;15.17;;;9.50;99.90;;;-141.84;62.68;18539.75;5007997;28;20206;-60
2024/03/13 08:02:51;;;;;;;23.83;15.67;;;9.60;99.90;;;-141.84;62.34;18586.50;4989416;28;20660;-60
2024/03/13 08:05:22;;;;;;;27.10;15.90;;;9.80;99.90;;;-141.84;62.50;18578.38;4986413;28;20215;-60
2024/03/13 08:07:50;;;;;;;24.60;16.67;;;9.80;99.90;;;-141.84;62.65;18568.19;5003606;28;20643;-59
2024/03/13 08:10:37;;;;;;;23.57;16.23;;;9.90;99.90;;;-141.84;62.09;18558.03;4993066;28;20990;-61
2024/03/13 08:13:25;;;;;;;22.60;16.30;;;10.00;99.90;;;-141.84;61.03;18558.03;4962780;28;20213;-60
2024/03/13 08:16:11;;;;;;;24.40;16.23;;;10.00;99.90;;;-141.84;60.80;18606.81;4988508;28;20222;-61
2024/03/13 08:19:00;;;;;;;23.40;16.23;;;10.10;99.90;;;-141.84;59.38;18639.31;4977622;28;20725;-61
2024/03/13 08:21:46;;;;;;;21.77;14.80;;;10.20;99.90;;;-141.84;59.59;18621.03;4993173;28;20243;-62
2024/03/13 08:24:32;;;;;;;25.50;16.33;;;10.10;99.90;;;-141.84;59.92;18625.09;5005328;28;20247;-61
2024/03/13 08:27:20;;;;;;;22.57;15.87;;;10.20;99.90;;;-141.84;59.23;18643.38;5001375;28;20205;-61
2024/03/13 08:30:07;;;;;;;23.77;15.10;;;10.30;99.90;;;-141.84;59.25;18663.69;5011427;28;20733;-61
2024/03/13 08:32:53;;;;;;;25.63;16.43;;;10.30;99.90;;;-141.84;59.50;18643.38;5006895;28;20713;-60
2024/03/13 08:35:41;;;;;;;25.87;16.27;;;10.40;99.90;;;-141.84;58.85;18692.13;4997175;28;20209;-61
2024/03/13 08:38:29;;;;;;;27.40;16.63;;;10.40;99.90;;;-141.84;58.87;18675.88;4991049;28;20894;-61
2024/03/13 08:41:16;;;;;;;23.37;16.03;;;10.50;99.90;;;-141.84;58.91;18655.56;5007509;28;20344;-57
2024/03/13 08:44:03;;;;;;;25.30;16.33;;;10.60;99.90;;;-141.84;58.07;18688.06;4989717;28;20376;-63
2024/03/13 08:46:49;;;;;;;26.33;16.73;;;10.60;99.90;;;-141.84;57.50;18679.94;4988420;28;20225;-64
2024/03/13 08:49:35;;;;;;;27.37;17.90;;;10.70;99.90;;;-141.84;57.08;18669.78;4986500;28;20209;-63
2024/03/13 08:52:21;;;;;;;26.57;17.00;;;10.70;99.90;;;-141.84;57.92;18704.31;4999996;28;20230;-59
2024/03/13 08:55:09;;;;;;;24.33;16.50;;;10.70;99.90;;;-141.84;58.13;18700.25;4984577;28;20229;-59
2024/03/13 08:57:55;;;;;;;26.40;17.70;;;10.70;99.90;;;-141.84;58.28;18671.81;5001990;28;20222;-59
2024/03/13 09:00:42;;;;;;;26.93;17.63;;;10.80;99.90;;;-141.84;57.24;18740.91;4990231;28;20575;-59
2024/03/13 09:03:29;;;;;;;24.60;17.57;;;11.00;99.90;;;-141.84;56.63;18724.66;4999430;28;20239;-59
2024/03/13 09:06:15;;;;;;;24.77;17.90;;;11.00;99.90;;;-141.84;56.50;18698.22;4993780;28;20389;-59
2024/03/13 09:08:44;;;;;;;26.23;17.57;;;11.00;99.90;;;-141.84;57.29;18663.69;4991853;28;20942;-59
2024/03/13 09:11:18;;;;;;;24.40;16.67;;;11.00;99.90;;;-141.84;57.16;18710.44;4985933;28;20864;-59
2024/03/13 09:13:46;;;;;;;25.87;17.80;;;11.00;99.90;;;-141.84;56.77;18728.72;4990133;28;20208;-59
2024/03/13 09:16:16;;;;;;;27.67;17.50;;;11.00;99.90;;;-141.84;56.41;18747.00;4991757;28;20215;-62
2024/03/13 09:18:45;;;;;;;25.60;17.80;;;11.20;99.90;;;-141.84;55.57;18720.59;4990723;28;20198;-62
2024/03/13 09:21:15;;;;;;;23.20;16.90;;;11.30;99.90;;;-141.84;55.57;18757.16;4986041;28;20197;-64
2024/03/13 09:23:43;;;;;;;23.60;16.10;;;11.40;99.90;;;-141.84;56.54;18751.06;4995004;28;20260;-61
2024/03/13 09:26:12;;;;;;;25.70;17.00;;;11.50;99.90;;;-141.84;55.64;18757.16;4988881;28;20221;-63
2024/03/13 09:28:43;;;;;;;25.30;17.10;;;11.60;99.90;;;-141.84;54.24;18779.50;4996352;28;20225;-63
2024/03/13 09:31:14;;;;;;;25.00;17.45;;;11.70;99.90;;;-141.84;54.08;18761.22;4993858;28;20614;-65
2024/03/13 09:33:44;;;;;;;25.70;17.60;;;11.70;99.90;;;-141.84;53.97;18805.91;5012321;28;20261;-63
2024/03/13 09:36:14;;;;;;;24.70;17.30;;;11.80;99.90;;;-141.84;53.84;18771.38;5005078;28;20289;-63
2024/03/13 09:38:44;;;;;;;24.47;17.60;;;11.80;99.90;;;-141.84;53.25;18818.09;5002784;28;20237;-60
2024/03/13 09:41:14;;;;;;;26.53;17.33;;;11.90;99.90;;;-141.84;52.77;18797.78;4998320;28;20198;-63
2024/03/13 09:43:45;;;;;;;27.00;18.23;;;11.90;99.90;;;-141.84;53.11;18834.38;5012487;28;20202;-56
2024/03/13 09:46:14;;;;;;;25.87;16.63;;;11.80;99.90;;;-141.84;53.28;18915.63;5010938;28;20229;-57
2024/03/13 09:48:44;;;;;;;23.63;16.53;;;12.00;99.90;;;-141.84;52.58;18795.75;5011141;28;20226;-57
2024/03/13 09:51:14;;;;;;;23.67;16.83;;;12.00;99.90;;;-141.84;52.05;18850.63;5003588;28;20303;-63
2024/03/13 09:53:45;;;;;;;26.77;17.47;;;12.10;99.90;;;-141.84;51.75;18887.19;4999923;28;20198;-57
2024/03/13 09:56:14;;;;;;;24.95;16.63;;;12.20;99.90;;;-141.84;51.00;18907.50;5001697;28;20233;-57
2024/03/13 09:58:45;;;;;;;23.33;16.73;;;12.30;99.90;;;-141.84;51.85;18852.66;5002130;28;20267;-60
2024/03/13 10:01:14;;;;;;;22.48;15.75;;;12.10;99.90;;;-141.84;52.54;18803.88;4994943;28;20313;-59
2024/03/13 10:03:45;;;;;;;26.23;15.98;;;12.10;99.90;;;-141.84;52.89;18826.25;5009205;28;20221;-57
2024/03/13 10:06:14;;;;;;;22.50;15.33;;;11.90;99.90;;;-141.84;52.47;18840.47;5002530;28;20209;-57
2024/03/13 10:08:43;;;;;;;21.98;14.90;;;11.80;99.90;;;-141.84;52.09;18899.38;5014588;28;20198;-58
2024/03/13 10:11:15;;;;;;;22.53;14.97;;;11.90;99.90;;;-141.84;51.04;18899.38;5007276;28;20273;-58
2024/03/13 10:13:44;;;;;;;19.37;13.93;;;12.40;99.90;;;-141.84;49.56;18909.53;5018028;28;20213;-58
2024/03/13 10:16:14;;;;;;;19.95;14.30;;;12.60;99.90;;;-141.84;49.26;18948.16;4999861;28;20217;-62
2024/03/13 10:18:47;;;;;;;21.67;14.10;;;12.90;99.90;;;-141.84;48.32;19019.28;4998489;28;20225;-59
2024/03/13 10:21:23;;;;;;;20.58;14.02;;;13.10;99.90;;;-141.84;47.47;18976.59;4986020;28;20262;-56
2024/03/13 10:23:53;;;;;;;19.65;14.00;;;13.40;99.90;;;-141.84;47.03;19017.25;5001352;28;20195;-58
2024/03/13 10:26:24;;;;;;;19.52;13.73;;;13.60;99.90;;;-141.84;46.98;19005.03;4998987;28;20208;-59
2024/03/13 10:28:56;;;;;;;17.38;12.65;;;13.70;99.90;;;-141.84;46.47;19114.78;4990705;28;20207;-62
2024/03/13 10:31:27;;;;;;;15.82;11.82;;;13.80;99.90;;;-141.84;45.67;19106.66;4972729;28;20194;-63